Loogootee, IN

02:20 PM EST on decembrie 21, 2014 (GMT -0500)
Monroe County | Change Station
CLOSE
Current Station
Aeroport
Location: Bloomington,
Elevation: 846 ft
Nearby Weather Stations

Elev 846 ft 39.15 °N, 86.62 °W | Updated 27 minutes ago

Cer parţial noros
Cer parţial noros
38 °F
Feels Like 33 °F
N
7
Vânt variabil Vânt from ESE

astăzi
High -- | Low -- °F
--% Chance of Precip.
Ieri
High -- | Low -- °F
Precip. -- inch
8:01 AM 5:29 PM
Semilună în descreştere, 0% visible
Presiunea 30.21 inch
Vizibilitatea 10.0 mile
Nori Cer senin
Vânt rece 33 °F
Punctul de rouă 30 °F
Umiditatea 73%
Precipitaţii 0.00 inch
Adâncimea zăpezii Not available.
UV 2 out of 12
Pollen .30 out of 12
Calitatea aerului Not available.
Flu Activity Not available.
METAR KBMG 211853Z 12006KT 10SM CLR 03/M01 A3018 RMK AO2 SLP228 T00331011

More Conditions Fewer Conditions

Presiunea 30.21 inch
Vizibilitatea 10.0 mile
Nori Cer senin
Vânt rece 33 °F
Punctul de rouă 30 °F
Umiditatea 73%
Precipitaţii 0.00 inch
Adâncimea zăpezii Not available.
UV 2 out of 12
Pollen .30 out of 12
Calitatea aerului Not available.
Flu Activity Not available.
METAR KBMG 211853Z 12006KT 10SM CLR 03/M01 A3018 RMK AO2 SLP228 T00331011

More Conditions Fewer Conditions

10-Day Weather Forecast

Almanac

Astronomie

Dec. 21, 2014 Răsărit Apus
Timpul Actual
Crepusculul Civil
Crepusculul nautic
Răsărit Astronomic
Luna
Durata zilei lumină
Lungimea zilei
Tomorrow will be .
, % of the Moon is Illuminated

Extremele de azi

State Highs State Lows

Community

WunderPhotos

Upload Photos

1,779,466 photos uploaded!

WunderBlogs® & News

Nearby

Calitatea aerului

  Calitatea aerului Index de calitate a aerului Poluat
Not available.

Adâncimea zapezii

Station Depth Elevation

Earthquake Activity

Oraş Distance Mag. Time & Date
Minimum magnitude displayed is 2.5.

Coastal Water Temperatures

Locul Temperatura

Nearby Weather Stations